createdAt,value
2018-08-16T00:01:07.148Z,8.50
2018-08-16T00:03:35.348Z,11.17
2018-08-16T00:06:03.599Z,9.97
2018-08-16T00:08:31.781Z,10.03
2018-08-16T00:10:59.981Z,10.67
2018-08-16T00:13:28.224Z,10.27
2018-08-16T00:15:56.417Z,11.00
2018-08-16T00:18:24.676Z,8.63
2018-08-16T00:20:52.894Z,10.90
2018-08-16T00:23:21.153Z,14.10
2018-08-16T00:25:49.382Z,9.57
2018-08-16T00:28:17.574Z,10.83
2018-08-16T00:30:45.823Z,10.87
2018-08-16T00:33:14.088Z,13.60
2018-08-16T00:35:42.298Z,14.47
2018-08-16T00:38:10.533Z,10.43
2018-08-16T00:40:38.748Z,10.23
2018-08-16T00:43:07.093Z,10.57
2018-08-16T00:45:35.926Z,11.80
2018-08-16T00:48:04.174Z,12.90
2018-08-16T00:50:32.364Z,13.23
2018-08-16T00:53:00.546Z,11.87
2018-08-16T00:55:28.900Z,11.67
2018-08-16T00:57:57.085Z,11.03
2018-08-16T01:00:25.833Z,11.13
2018-08-16T01:02:54.055Z,11.07
2018-08-16T01:05:22.256Z,13.10
2018-08-16T01:07:50.493Z,13.03
2018-08-16T01:10:18.660Z,13.13
2018-08-16T01:12:46.857Z,10.57
2018-08-16T01:15:16.334Z,13.10
2018-08-16T01:17:44.561Z,12.07
2018-08-16T01:20:12.972Z,12.67
2018-08-16T01:22:41.253Z,10.27
2018-08-16T01:25:10.791Z,11.93
2018-08-16T01:27:39.007Z,14.17
2018-08-16T01:30:08.209Z,14.87
2018-08-16T01:32:36.432Z,12.57
2018-08-16T01:35:05.339Z,12.93
2018-08-16T01:37:33.538Z,11.50
2018-08-16T01:40:01.760Z,10.93
2018-08-16T01:42:29.983Z,11.43
2018-08-16T01:44:58.181Z,12.77
2018-08-16T01:47:27.308Z,10.03
2018-08-16T01:49:55.538Z,12.13
2018-08-16T01:52:23.738Z,11.80
2018-08-16T01:54:51.956Z,11.80
2018-08-16T01:57:20.166Z,10.03
2018-08-16T01:59:48.390Z,9.87
2018-08-16T02:02:16.593Z,12.43
2018-08-16T02:04:44.836Z,9.30
2018-08-16T02:07:13.055Z,11.50
2018-08-16T02:09:41.327Z,9.37
2018-08-16T02:12:09.538Z,9.50
2018-08-16T02:14:37.757Z,9.80
2018-08-16T02:17:06.030Z,9.47
2018-08-16T02:19:34.213Z,9.00
2018-08-16T02:22:02.410Z,10.47
2018-08-16T02:24:30.645Z,9.57
2018-08-16T02:26:58.965Z,8.33
2018-08-16T02:29:27.214Z,11.30
2018-08-16T02:31:56.367Z,10.80
2018-08-16T02:34:24.580Z,8.37
2018-08-16T02:36:52.755Z,9.80
2018-08-16T02:39:20.950Z,8.13
2018-08-16T02:41:49.121Z,9.37
2018-08-16T02:44:17.346Z,8.63
2018-08-16T02:46:45.531Z,7.90
2018-08-16T02:49:13.741Z,8.53
2018-08-16T02:51:41.979Z,10.73
2018-08-16T02:54:10.192Z,8.70
2018-08-16T02:56:38.478Z,8.67
2018-08-16T02:59:06.689Z,7.93
2018-08-16T03:01:34.884Z,8.00
2018-08-16T03:04:03.353Z,8.00
2018-08-16T03:06:31.597Z,9.53
2018-08-16T03:08:59.833Z,7.83
2018-08-16T03:11:28.102Z,7.87
2018-08-16T03:13:56.299Z,7.87
2018-08-16T03:16:24.515Z,7.67
2018-08-16T03:18:52.740Z,7.50
2018-08-16T03:21:20.980Z,7.70
2018-08-16T03:23:49.207Z,7.47
2018-08-16T03:26:17.431Z,7.77
2018-08-16T03:28:45.643Z,8.23
2018-08-16T03:31:13.878Z,8.60
2018-08-16T03:33:42.111Z,9.37
2018-08-16T03:36:10.317Z,7.97
2018-08-16T03:38:38.539Z,7.33
2018-08-16T03:41:06.741Z,7.67
2018-08-16T03:43:34.952Z,8.10
2018-08-16T03:46:03.209Z,7.80
2018-08-16T03:48:31.522Z,7.90
2018-08-16T03:50:59.732Z,7.87
2018-08-16T03:53:27.995Z,7.33
2018-08-16T03:55:56.208Z,7.30
2018-08-16T03:58:24.428Z,7.00
2018-08-16T04:00:52.717Z,10.90
2018-08-16T04:03:20.963Z,7.23
2018-08-16T04:05:49.169Z,8.40
2018-08-16T04:08:17.415Z,7.37
2018-08-16T04:10:45.657Z,7.23
2018-08-16T04:13:13.885Z,7.80
2018-08-16T04:15:42.092Z,8.60
2018-08-16T04:18:10.317Z,7.83
2018-08-16T04:20:38.613Z,11.00
2018-08-16T04:23:06.788Z,7.37
2018-08-16T04:25:35.062Z,8.47
2018-08-16T04:28:03.447Z,8.57
2018-08-16T04:30:31.664Z,7.07
2018-08-16T04:32:59.891Z,6.70
2018-08-16T04:35:28.207Z,7.40
2018-08-16T04:37:56.408Z,7.27
2018-08-16T04:40:24.633Z,8.13
2018-08-16T04:42:53.140Z,8.63
2018-08-16T04:45:21.358Z,7.00
2018-08-16T04:47:49.540Z,7.67
2018-08-16T04:50:17.771Z,7.67
2018-08-16T04:52:45.956Z,7.23
2018-08-16T04:55:14.168Z,7.10
2018-08-16T04:57:42.444Z,10.03
2018-08-16T05:00:11.931Z,8.57
2018-08-16T05:02:40.160Z,7.73
2018-08-16T05:05:08.788Z,7.97
2018-08-16T05:07:37.277Z,7.40
2018-08-16T05:10:06.409Z,8.17
2018-08-16T05:12:34.665Z,7.80
2018-08-16T05:15:02.893Z,9.80
2018-08-16T05:17:31.116Z,9.83
2018-08-16T05:19:59.316Z,7.83
2018-08-16T05:22:27.538Z,8.87
2018-08-16T05:24:55.711Z,7.33
2018-08-16T05:27:23.913Z,7.30
2018-08-16T05:29:52.107Z,8.77
2018-08-16T05:32:20.320Z,7.67
2018-08-16T05:34:48.600Z,8.40
2018-08-16T05:37:16.852Z,7.77
2018-08-16T05:39:45.182Z,9.90
2018-08-16T05:42:13.558Z,7.47
2018-08-16T05:44:42.057Z,9.07
2018-08-16T05:47:10.320Z,9.43
2018-08-16T05:49:38.768Z,7.30
2018-08-16T05:52:07.118Z,7.20
2018-08-16T05:54:35.356Z,8.77
2018-08-16T05:57:05.210Z,7.37
2018-08-16T05:59:33.485Z,10.10
2018-08-16T06:02:01.893Z,11.13
2018-08-16T06:04:30.179Z,8.40
2018-08-16T06:06:58.581Z,10.73
2018-08-16T06:09:26.898Z,9.07
2018-08-16T06:11:55.249Z,8.63
2018-08-16T06:14:23.468Z,8.20
2018-08-16T06:16:51.717Z,8.20
2018-08-16T06:19:19.940Z,8.47
2018-08-16T06:21:48.180Z,9.03
2018-08-16T06:24:16.450Z,9.37
2018-08-16T06:26:44.666Z,11.40
2018-08-16T06:29:12.910Z,8.80
2018-08-16T06:31:41.368Z,11.17
2018-08-16T06:34:09.474Z,9.93
2018-08-16T06:36:37.693Z,8.70
2018-08-16T06:39:08.795Z,13.00
2018-08-16T06:41:37.113Z,11.43
2018-08-16T06:44:05.364Z,9.73
2018-08-16T06:46:33.850Z,8.67
2018-08-16T06:49:02.122Z,9.13
2018-08-16T06:51:30.483Z,11.87
2018-08-16T06:53:58.806Z,10.07
2018-08-16T06:56:27.112Z,12.20
2018-08-16T06:58:55.517Z,11.27
2018-08-16T07:01:23.915Z,9.23
2018-08-16T07:03:52.295Z,11.97
2018-08-16T07:06:20.519Z,12.37
2018-08-16T07:08:48.764Z,12.90
2018-08-16T07:11:17.041Z,12.03
2018-08-16T07:13:45.365Z,11.10
2018-08-16T07:16:13.573Z,10.17
2018-08-16T07:18:41.814Z,11.33
2018-08-16T07:21:10.047Z,11.13
2018-08-16T07:23:38.014Z,14.53
2018-08-16T07:26:06.274Z,11.93
2018-08-16T07:28:34.496Z,12.70
2018-08-16T07:31:02.990Z,11.77
2018-08-16T07:33:31.333Z,13.87
2018-08-16T07:35:59.581Z,11.53
2018-08-16T07:38:27.880Z,10.27
2018-08-16T07:40:56.162Z,10.98
2018-08-16T07:43:24.412Z,10.35
2018-08-16T07:45:52.816Z,9.25
2018-08-16T07:48:20.972Z,10.08
2018-08-16T07:50:55.836Z,9.90
2018-08-16T07:53:24.066Z,9.83
2018-08-16T07:55:52.301Z,12.53
2018-08-16T07:58:20.579Z,9.70
2018-08-16T08:00:48.804Z,9.90
2018-08-16T08:03:17.045Z,10.15
2018-08-16T08:05:45.281Z,10.43
2018-08-16T08:08:13.565Z,9.48
2018-08-16T08:10:41.789Z,7.72
2018-08-16T08:13:09.998Z,8.60
2018-08-16T08:15:38.218Z,8.08
2018-08-16T08:18:06.901Z,7.53
2018-08-16T08:20:35.102Z,6.95
2018-08-16T08:23:03.350Z,8.45
2018-08-16T08:25:31.672Z,8.03
2018-08-16T08:27:59.885Z,7.42
2018-08-16T08:30:28.126Z,7.58
2018-08-16T08:32:56.416Z,6.20
2018-08-16T08:35:24.644Z,7.33
2018-08-16T08:38:01.741Z,8.60
2018-08-16T08:40:30.262Z,8.23
2018-08-16T08:42:58.497Z,9.73
2018-08-16T08:45:26.754Z,7.40
2018-08-16T08:47:55.849Z,8.50
2018-08-16T08:50:24.604Z,7.78
2018-08-16T08:52:52.947Z,10.18
2018-08-16T08:55:32.580Z,7.62
2018-08-16T08:58:12.160Z,6.95
2018-08-16T09:00:40.381Z,6.35
2018-08-16T09:03:08.594Z,8.05
2018-08-16T09:05:36.810Z,7.03
2018-08-16T09:08:05.765Z,5.28
2018-08-16T09:10:54.858Z,5.20
2018-08-16T09:13:35.463Z,6.37
2018-08-16T09:16:07.761Z,7.08
2018-08-16T09:18:36.042Z,5.97
2018-08-16T09:21:04.306Z,5.90
2018-08-16T09:23:32.697Z,7.83
2018-08-16T09:26:00.937Z,6.95
2018-08-16T09:28:29.144Z,5.80
2018-08-16T09:31:08.659Z,4.37
2018-08-16T09:33:48.227Z,5.67
2018-08-16T09:36:16.523Z,4.75
2018-08-16T09:38:44.749Z,5.78
2018-08-16T09:41:12.982Z,4.03
2018-08-16T09:43:41.200Z,4.90
2018-08-16T09:47:18.274Z,4.45
2018-08-16T09:49:47.905Z,6.22
2018-08-16T09:52:16.412Z,3.80
2018-08-16T09:54:44.694Z,4.55
2018-08-16T09:57:13.569Z,4.17
2018-08-16T09:59:41.789Z,6.33
2018-08-16T10:02:11.591Z,5.80
2018-08-16T10:04:39.884Z,5.00
2018-08-16T10:07:08.112Z,5.20
2018-08-16T10:09:36.317Z,5.67
2018-08-16T10:12:04.761Z,5.15
2018-08-16T10:14:33.016Z,4.00
2018-08-16T10:17:01.251Z,4.58
2018-08-16T10:19:29.836Z,5.25
2018-08-16T10:21:59.001Z,4.55
2018-08-16T10:24:27.259Z,4.17
2018-08-16T10:26:55.514Z,4.33
2018-08-16T10:29:24.318Z,5.78
2018-08-16T10:31:52.549Z,4.58
2018-08-16T10:34:20.787Z,3.62
2018-08-16T10:36:48.986Z,3.75
2018-08-16T10:39:18.077Z,3.60
2018-08-16T10:41:46.403Z,5.33
2018-08-16T10:44:15.140Z,4.30
2018-08-16T10:46:43.428Z,4.53
2018-08-16T10:49:11.664Z,6.08
2018-08-16T10:51:39.937Z,4.87
2018-08-16T10:54:08.185Z,4.03
2018-08-16T10:56:36.420Z,5.67
2018-08-16T10:59:04.778Z,6.50
2018-08-16T11:01:32.994Z,4.70
2018-08-16T11:04:01.312Z,5.87
2018-08-16T11:06:29.565Z,7.65
2018-08-16T11:08:57.799Z,3.92
2018-08-16T11:11:26.043Z,4.67
2018-08-16T11:13:54.383Z,6.47
2018-08-16T11:16:22.623Z,4.80
2018-08-16T11:18:50.916Z,4.37
2018-08-16T11:21:19.069Z,5.08
2018-08-16T11:23:47.312Z,5.28
2018-08-16T11:26:15.551Z,5.65
2018-08-16T11:28:43.773Z,4.25
2018-08-16T11:31:12.002Z,4.60
2018-08-16T11:33:40.262Z,4.75
2018-08-16T11:36:08.590Z,4.40
2018-08-16T11:38:36.824Z,5.30
2018-08-16T11:41:05.077Z,4.58
2018-08-16T11:43:33.276Z,5.87
2018-08-16T11:46:01.516Z,5.87
2018-08-16T11:48:29.758Z,5.47
2018-08-16T11:50:58.213Z,4.25
2018-08-16T11:53:26.449Z,4.22
2018-08-16T11:55:54.653Z,6.33
2018-08-16T11:58:22.872Z,5.47
2018-08-16T12:00:51.087Z,5.37
2018-08-16T12:03:19.296Z,4.95
2018-08-16T12:05:47.509Z,4.10
2018-08-16T12:08:15.715Z,5.25
2018-08-16T12:10:43.956Z,6.50
2018-08-16T12:13:12.194Z,4.35
2018-08-16T12:15:40.424Z,5.55
2018-08-16T12:18:08.689Z,4.90
2018-08-16T12:20:36.934Z,4.45
2018-08-16T12:23:05.279Z,4.53
2018-08-16T12:25:33.708Z,6.55
2018-08-16T12:28:01.901Z,3.87
2018-08-16T12:30:30.119Z,4.50
2018-08-16T12:32:58.360Z,4.50
2018-08-16T12:35:26.601Z,5.90
2018-08-16T12:37:54.899Z,4.12
2018-08-16T12:40:23.130Z,4.92
2018-08-16T12:42:51.341Z,3.83
2018-08-16T12:45:19.546Z,4.80
2018-08-16T12:47:48.471Z,4.78
2018-08-16T12:50:16.615Z,4.10
2018-08-16T12:52:44.908Z,4.00
2018-08-16T12:55:13.122Z,8.23
2018-08-16T12:57:41.340Z,4.33
2018-08-16T13:00:13.177Z,3.90
2018-08-16T13:02:41.400Z,5.37
2018-08-16T13:05:09.723Z,5.03
2018-08-16T13:07:37.980Z,5.25
2018-08-16T13:10:07.044Z,4.60
2018-08-16T13:12:35.289Z,4.03
2018-08-16T13:15:04.393Z,3.87
2018-08-16T13:17:32.651Z,5.10
2018-08-16T13:20:00.890Z,5.95
2018-08-16T13:22:29.128Z,4.33
2018-08-16T13:24:57.385Z,3.98
2018-08-16T13:27:25.700Z,4.00
2018-08-16T13:29:53.901Z,5.58
2018-08-16T13:32:22.271Z,4.70
2018-08-16T13:34:50.560Z,4.75
2018-08-16T13:37:18.845Z,3.77
2018-08-16T13:39:47.067Z,5.47
2018-08-16T13:42:15.402Z,3.60
2018-08-16T13:44:44.551Z,5.50
2018-08-16T13:47:12.918Z,7.55
2018-08-16T13:49:41.354Z,4.05
2018-08-16T13:52:09.920Z,3.58
2018-08-16T13:54:38.379Z,5.60
2018-08-16T13:57:07.095Z,3.92
2018-08-16T13:59:35.364Z,6.78
2018-08-16T14:02:03.710Z,3.95
2018-08-16T14:04:31.939Z,4.00
2018-08-16T14:07:00.132Z,4.05
2018-08-16T14:09:28.388Z,4.08
2018-08-16T14:11:56.656Z,4.45
2018-08-16T14:14:24.888Z,3.95
2018-08-16T14:16:53.136Z,3.92
2018-08-16T14:19:21.367Z,6.17
2018-08-16T14:21:49.581Z,4.55
2018-08-16T14:24:17.858Z,4.45
2018-08-16T14:26:46.125Z,4.28
2018-08-16T14:29:14.324Z,3.60
2018-08-16T14:31:42.571Z,5.92
2018-08-16T14:34:10.785Z,6.30
2018-08-16T14:36:39.049Z,5.97
2018-08-16T14:39:09.194Z,5.45
2018-08-16T14:41:37.418Z,6.45
2018-08-16T14:44:05.784Z,6.55
2018-08-16T14:46:34.287Z,8.03
2018-08-16T14:49:02.543Z,8.20
2018-08-16T14:51:30.905Z,7.22
2018-08-16T14:53:59.077Z,6.95
2018-08-16T14:56:27.380Z,6.17
2018-08-16T14:58:55.636Z,5.80
2018-08-16T15:01:23.868Z,8.90
2018-08-16T15:03:52.087Z,5.05
2018-08-16T15:06:20.324Z,5.90
2018-08-16T15:08:48.563Z,8.85
2018-08-16T15:11:16.854Z,6.25
2018-08-16T15:13:45.094Z,7.47
2018-08-16T15:16:13.372Z,5.42
2018-08-16T15:18:41.743Z,5.65
2018-08-16T15:21:09.978Z,6.53
2018-08-16T15:23:38.430Z,6.58
2018-08-16T15:26:06.911Z,8.65
2018-08-16T15:28:35.477Z,7.17
2018-08-16T15:31:03.732Z,6.80
2018-08-16T15:33:31.909Z,7.30
2018-08-16T15:36:00.148Z,8.95
2018-08-16T15:38:28.385Z,7.22
2018-08-16T15:40:56.644Z,6.17
2018-08-16T15:43:24.885Z,5.65
2018-08-16T15:45:53.109Z,9.95
2018-08-16T15:48:21.505Z,6.97
2018-08-16T15:50:49.492Z,9.18
2018-08-16T15:53:17.751Z,5.78
2018-08-16T15:55:46.346Z,8.75
2018-08-16T15:58:14.732Z,7.10
2018-08-16T16:00:42.960Z,6.80
2018-08-16T16:03:12.071Z,6.17
2018-08-16T16:05:40.363Z,9.08
2018-08-16T16:08:08.624Z,8.95
2018-08-16T16:10:36.828Z,8.25
2018-08-16T16:13:05.438Z,8.88
2018-08-16T16:15:33.660Z,11.83
2018-08-16T16:18:01.912Z,6.72
2018-08-16T16:20:30.365Z,10.43
2018-08-16T16:22:59.524Z,7.42
2018-08-16T16:25:27.791Z,11.30
2018-08-16T16:27:56.018Z,6.72
2018-08-16T16:30:24.241Z,8.50
2018-08-16T16:32:52.495Z,8.75
2018-08-16T16:35:20.912Z,6.78
2018-08-16T16:37:49.281Z,6.65
2018-08-16T16:40:17.557Z,8.18
2018-08-16T16:42:45.889Z,8.33
2018-08-16T16:45:14.194Z,9.68
2018-08-16T16:47:42.412Z,8.05
2018-08-16T16:50:10.680Z,8.03
2018-08-16T16:52:39.120Z,12.45
2018-08-16T16:55:07.449Z,11.70
2018-08-16T16:57:35.721Z,10.35
2018-08-16T17:00:06.168Z,11.88
2018-08-16T17:02:34.460Z,8.15
2018-08-16T17:05:02.718Z,9.83
2018-08-16T17:07:30.999Z,9.75
2018-08-16T17:09:59.390Z,9.28
2018-08-16T17:12:27.868Z,10.82
2018-08-16T17:14:56.106Z,7.62
2018-08-16T17:17:24.646Z,7.20
2018-08-16T17:19:52.861Z,10.10
2018-08-16T17:22:21.088Z,7.80
2018-08-16T17:24:49.381Z,9.35
2018-08-16T17:27:17.642Z,12.47
2018-08-16T17:29:45.845Z,7.92
2018-08-16T17:32:14.060Z,7.58
2018-08-16T17:34:42.259Z,10.23
2018-08-16T17:37:10.430Z,8.45
2018-08-16T17:39:38.768Z,11.50
2018-08-16T17:42:07.087Z,9.77
2018-08-16T17:44:35.378Z,9.78
2018-08-16T17:47:03.656Z,9.53
2018-08-16T17:49:32.046Z,10.77
2018-08-16T17:52:00.321Z,8.53
2018-08-16T17:54:29.195Z,11.85
2018-08-16T17:56:58.673Z,9.13
2018-08-16T17:59:26.900Z,10.27
2018-08-16T18:01:55.166Z,12.20
2018-08-16T18:04:23.389Z,11.13
2018-08-16T18:06:51.623Z,10.23
2018-08-16T18:09:19.885Z,10.43
2018-08-16T18:11:48.880Z,9.07
2018-08-16T18:14:17.820Z,9.63
2018-08-16T18:16:46.027Z,11.23
2018-08-16T18:19:14.539Z,8.60
2018-08-16T18:21:43.987Z,10.30
2018-08-16T18:24:12.458Z,10.40
2018-08-16T18:26:40.615Z,9.53
2018-08-16T18:29:08.815Z,13.07
2018-08-16T18:31:36.980Z,13.90
2018-08-16T18:34:05.283Z,20.50
2018-08-16T18:36:33.606Z,14.60
2018-08-16T18:39:02.521Z,15.67
2018-08-16T18:41:30.850Z,15.33
2018-08-16T18:43:59.087Z,12.33
2018-08-16T18:46:27.552Z,13.33
2018-08-16T18:48:57.149Z,10.90
2018-08-16T18:51:26.080Z,10.43
2018-08-16T18:53:54.318Z,10.53
2018-08-16T18:56:22.526Z,10.93
2018-08-16T18:58:50.900Z,11.90
2018-08-16T19:01:19.922Z,10.03
2018-08-16T19:03:48.269Z,9.47
2018-08-16T19:06:16.493Z,9.67
2018-08-16T19:08:44.766Z,13.83
2018-08-16T19:11:13.050Z,10.53
2018-08-16T19:13:41.297Z,12.63
2018-08-16T19:16:09.555Z,9.87
2018-08-16T19:18:37.925Z,9.27
2018-08-16T19:21:06.161Z,11.43
2018-08-16T19:23:35.119Z,9.00
2018-08-16T19:26:03.461Z,10.30
2018-08-16T19:28:31.791Z,12.33
2018-08-16T19:31:01.053Z,9.97
2018-08-16T19:33:29.296Z,8.97
2018-08-16T19:35:57.510Z,14.60
2018-08-16T19:38:25.756Z,8.80
2018-08-16T19:40:54.027Z,10.27
2018-08-16T19:43:22.310Z,10.23
2018-08-16T19:45:50.534Z,11.13
2018-08-16T19:48:18.833Z,10.70
2018-08-16T19:50:46.998Z,10.93
2018-08-16T19:53:15.265Z,12.20
2018-08-16T19:55:43.496Z,9.17
2018-08-16T19:58:11.867Z,10.00
2018-08-16T20:00:40.464Z,11.27
2018-08-16T20:03:08.897Z,9.63
2018-08-16T20:05:37.154Z,11.70
2018-08-16T20:08:05.567Z,11.00
2018-08-16T20:10:33.836Z,9.43
2018-08-16T20:13:02.137Z,8.93
2018-08-16T20:15:30.432Z,12.20
2018-08-16T20:17:58.760Z,15.50
2018-08-16T20:20:26.968Z,19.00
2018-08-16T20:22:55.186Z,14.17
2018-08-16T20:25:23.439Z,13.07
2018-08-16T20:27:51.696Z,12.27
2018-08-16T20:30:19.971Z,12.70
2018-08-16T20:32:48.222Z,13.77
2018-08-16T20:35:16.468Z,13.47
2018-08-16T20:37:44.752Z,14.50
2018-08-16T20:40:13.021Z,14.60
2018-08-16T20:42:41.294Z,14.90
2018-08-16T20:45:10.034Z,12.33
2018-08-16T20:47:38.990Z,11.67
2018-08-16T20:50:07.721Z,10.20
2018-08-16T20:52:36.248Z,13.47
2018-08-16T20:55:04.622Z,13.57
2018-08-16T20:57:39.376Z,11.23
2018-08-16T21:00:09.366Z,11.87
2018-08-16T21:02:39.238Z,12.43
2018-08-16T21:05:08.103Z,10.10
2018-08-16T21:07:36.364Z,12.10
2018-08-16T21:10:05.767Z,10.40
2018-08-16T21:12:34.060Z,10.53
2018-08-16T21:15:02.366Z,15.97
2018-08-16T21:17:30.506Z,12.13
2018-08-16T21:19:58.711Z,11.70
2018-08-16T21:22:26.890Z,13.23
2018-08-16T21:24:55.117Z,11.00
2018-08-16T21:27:23.366Z,11.33
2018-08-16T21:29:51.597Z,12.53
2018-08-16T21:32:19.816Z,10.80
2018-08-16T21:34:48.048Z,13.50
2018-08-16T21:37:16.408Z,11.47
2018-08-16T21:39:44.649Z,13.47
2018-08-16T21:42:12.864Z,11.43
2018-08-16T21:44:41.109Z,13.60
2018-08-16T21:47:09.319Z,12.60
2018-08-16T21:49:37.548Z,10.87
2018-08-16T21:52:05.806Z,12.70
2018-08-16T21:54:34.013Z,13.33
2018-08-16T21:57:02.248Z,11.90
2018-08-16T21:59:30.488Z,11.80
2018-08-16T22:01:58.731Z,11.30
2018-08-16T22:04:26.945Z,11.00
2018-08-16T22:07:01.448Z,10.87
2018-08-16T22:09:29.653Z,12.37
2018-08-16T22:11:57.856Z,12.03
2018-08-16T22:14:26.052Z,10.80
2018-08-16T22:16:54.283Z,12.20
2018-08-16T22:19:22.493Z,11.93
2018-08-16T22:21:50.741Z,16.60
2018-08-16T22:24:18.953Z,12.33
2018-08-16T22:26:47.474Z,12.27
2018-08-16T22:29:15.761Z,12.43
2018-08-16T22:31:44.025Z,12.70
2018-08-16T22:34:12.206Z,12.87
2018-08-16T22:36:40.497Z,11.73
2018-08-16T22:39:10.321Z,12.60
2018-08-16T22:41:38.508Z,13.57
2018-08-16T22:44:06.836Z,14.23
2018-08-16T22:46:35.131Z,12.43
2018-08-16T22:49:03.394Z,14.83
2018-08-16T22:51:31.652Z,14.07
2018-08-16T22:54:00.745Z,14.13
2018-08-16T22:56:28.936Z,14.63
2018-08-16T22:58:57.330Z,15.83
2018-08-16T23:01:25.558Z,13.97
2018-08-16T23:03:53.770Z,14.90
2018-08-16T23:06:21.970Z,15.83
2018-08-16T23:08:50.176Z,15.07
2018-08-16T23:11:18.388Z,13.27
2018-08-16T23:13:46.645Z,16.67
2018-08-16T23:16:16.104Z,14.17
2018-08-16T23:18:44.300Z,13.27
2018-08-16T23:21:12.496Z,13.57
2018-08-16T23:23:40.697Z,14.50
2018-08-16T23:26:08.905Z,15.00
2018-08-16T23:28:37.122Z,14.30
2018-08-16T23:31:05.328Z,13.20
2018-08-16T23:33:33.512Z,19.23
2018-08-16T23:36:01.699Z,14.93
2018-08-16T23:38:29.916Z,14.70
2018-08-16T23:40:58.145Z,13.13
2018-08-16T23:43:26.370Z,14.53
2018-08-16T23:45:54.624Z,14.07
2018-08-16T23:48:27.667Z,15.23
2018-08-16T23:50:55.886Z,15.37
2018-08-16T23:53:24.144Z,17.77
2018-08-16T23:55:52.471Z,16.20
2018-08-16T23:58:20.808Z,16.17
